createdAt,value
2022-11-20T00:03:00.916Z,73.06
2022-11-20T00:08:02.873Z,73.10
2022-11-20T00:13:05.071Z,73.12
2022-11-20T00:18:07.013Z,73.09
2022-11-20T00:23:08.846Z,73.03
2022-11-20T00:28:10.674Z,72.93
2022-11-20T00:33:12.472Z,73.02
2022-11-20T00:38:14.275Z,72.93
2022-11-20T00:43:16.084Z,72.93
2022-11-20T00:48:18.068Z,72.79
2022-11-20T00:53:19.987Z,72.95
2022-11-20T00:58:22.690Z,72.87
2022-11-20T01:03:27.162Z,72.77
2022-11-20T01:08:34.587Z,72.57
2022-11-20T01:13:40.465Z,72.70
2022-11-20T01:18:45.123Z,72.58
2022-11-20T01:23:48.766Z,73.01
2022-11-20T01:28:51.471Z,72.85
2022-11-20T01:33:56.133Z,72.82
2022-11-20T01:39:01.126Z,72.82
2022-11-20T01:44:05.740Z,72.79
2022-11-20T01:49:16.463Z,72.84
2022-11-20T01:54:24.911Z,72.51
2022-11-20T01:59:29.263Z,72.87
2022-11-20T02:04:31.413Z,72.85
2022-11-20T02:09:33.330Z,72.81
2022-11-20T02:14:35.347Z,72.84
2022-11-20T02:19:37.136Z,72.79
2022-11-20T02:24:39.086Z,72.84
2022-11-20T02:29:54.075Z,72.86
2022-11-20T02:34:56.656Z,72.98
2022-11-20T02:39:58.573Z,72.88
2022-11-20T02:45:00.372Z,72.90
2022-11-20T02:50:02.411Z,72.84
2022-11-20T02:55:04.964Z,72.76
2022-11-20T03:00:07.975Z,72.71
2022-11-20T03:05:09.975Z,72.75
2022-11-20T03:10:12.063Z,72.74
2022-11-20T03:15:13.871Z,72.71
2022-11-20T03:20:15.838Z,72.75
2022-11-20T03:25:17.600Z,72.66
2022-11-20T03:30:19.684Z,72.54
2022-11-20T03:35:21.628Z,72.59
2022-11-20T03:40:23.390Z,72.52
2022-11-20T03:45:25.259Z,72.44
2022-11-20T03:50:27.054Z,72.32
2022-11-20T03:55:29.205Z,72.54
2022-11-20T04:00:31.151Z,72.61
2022-11-20T04:05:35.193Z,72.56
2022-11-20T04:10:37.052Z,72.59
2022-11-20T04:15:38.859Z,72.72
2022-11-20T04:20:40.620Z,72.44
2022-11-20T04:25:42.627Z,72.44
2022-11-20T04:30:44.593Z,72.55
2022-11-20T04:35:48.454Z,72.32
2022-11-20T04:40:50.291Z,72.33
2022-11-20T04:45:53.589Z,72.58
2022-11-20T04:50:55.835Z,72.38
2022-11-20T04:56:06.701Z,72.64
2022-11-20T05:01:14.545Z,72.54
2022-11-20T05:06:19.135Z,72.34
2022-11-20T05:11:22.228Z,72.30
2022-11-20T05:16:25.567Z,72.41
2022-11-20T05:21:28.796Z,72.41
2022-11-20T05:26:30.565Z,72.45
2022-11-20T05:31:32.347Z,72.34
2022-11-20T05:36:34.283Z,72.19
2022-11-20T05:41:36.075Z,72.07
2022-11-20T05:46:38.060Z,71.90
2022-11-20T05:51:39.988Z,71.73
2022-11-20T05:56:41.826Z,72.18
2022-11-20T06:01:43.696Z,72.09
2022-11-20T06:06:45.505Z,72.20
2022-11-20T06:11:47.316Z,72.02
2022-11-20T06:16:49.350Z,72.14
2022-11-20T06:21:51.228Z,72.01
2022-11-20T06:26:53.028Z,72.09
2022-11-20T06:31:54.788Z,72.30
2022-11-20T06:36:56.626Z,72.18
2022-11-20T06:41:59.155Z,72.41
2022-11-20T06:47:02.115Z,72.38
2022-11-20T06:52:04.248Z,72.41
2022-11-20T06:57:06.059Z,72.49
2022-11-20T07:02:13.024Z,72.69
2022-11-20T07:07:14.881Z,72.71
2022-11-20T07:12:16.663Z,72.62
2022-11-20T07:17:18.427Z,72.73
2022-11-20T07:22:22.921Z,72.74
2022-11-20T07:27:24.735Z,72.77
2022-11-20T07:32:26.621Z,72.93
2022-11-20T07:37:28.465Z,73.11
2022-11-20T07:42:30.469Z,73.18
2022-11-20T07:47:38.009Z,73.20
2022-11-20T07:52:39.818Z,73.39
2022-11-20T07:57:42.048Z,73.34
2022-11-20T08:02:44.450Z,73.54
2022-11-20T08:07:46.505Z,73.66
2022-11-20T08:13:12.149Z,73.75
2022-11-20T08:23:38.792Z,73.88
2022-11-20T08:28:41.036Z,73.99
2022-11-20T08:33:42.836Z,74.05
2022-11-20T08:38:50.099Z,74.05
2022-11-20T08:43:54.646Z,74.08
2022-11-20T08:48:56.494Z,73.92
2022-11-20T08:53:59.978Z,74.25
2022-11-20T08:59:22.926Z,74.23
2022-11-20T09:04:24.484Z,74.35
2022-11-20T09:09:26.361Z,74.24
2022-11-20T09:14:30.264Z,74.30
2022-11-20T09:19:36.284Z,74.57
2022-11-20T09:24:38.516Z,74.48
2022-11-20T09:29:40.547Z,74.46
2022-11-20T09:34:42.358Z,74.55
2022-11-20T09:39:44.797Z,74.63
2022-11-20T09:44:52.579Z,74.89
2022-11-20T09:49:57.431Z,74.80
2022-11-20T09:55:02.243Z,75.00
2022-11-20T10:00:07.072Z,75.02
2022-11-20T10:05:26.952Z,75.13
2022-11-20T10:10:43.940Z,75.14
2022-11-20T10:15:46.163Z,75.25
2022-11-20T10:20:54.562Z,75.44
2022-11-20T10:26:02.442Z,75.76
2022-11-20T10:31:09.796Z,75.85
2022-11-20T10:36:28.693Z,75.74
2022-11-20T10:41:37.236Z,76.16
2022-11-20T10:46:45.757Z,76.05
2022-11-20T10:51:47.437Z,76.13
2022-11-20T10:56:54.133Z,76.01
2022-11-20T11:01:55.965Z,76.02
2022-11-20T11:07:09.526Z,76.27
2022-11-20T11:12:12.027Z,76.11
2022-11-20T11:17:29.596Z,76.34
2022-11-20T11:22:33.978Z,76.50
2022-11-20T11:27:46.331Z,76.71
2022-11-20T11:32:48.677Z,76.62
2022-11-20T11:37:52.168Z,76.75
2022-11-20T11:42:57.798Z,76.91
2022-11-20T11:48:04.162Z,76.83
2022-11-20T11:53:18.857Z,76.99
2022-11-20T11:58:51.362Z,76.91
2022-11-20T12:04:21.637Z,76.93
2022-11-20T12:09:38.986Z,77.06
2022-11-20T12:14:44.444Z,77.20
2022-11-20T12:19:46.191Z,77.40
2022-11-20T12:24:53.447Z,77.40
2022-11-20T12:30:14.174Z,77.30
2022-11-20T12:35:50.055Z,77.39
2022-11-20T12:41:06.492Z,77.60
2022-11-20T12:46:14.075Z,77.46
2022-11-20T12:51:16.400Z,77.58
2022-11-20T12:56:40.459Z,77.60
2022-11-20T13:01:51.368Z,77.63
2022-11-20T13:06:53.558Z,77.80
2022-11-20T13:12:11.848Z,77.93
2022-11-20T13:17:19.890Z,78.06
2022-11-20T13:22:28.134Z,78.00
2022-11-20T13:27:32.095Z,78.07
2022-11-20T13:32:34.257Z,78.15
2022-11-20T13:37:38.494Z,78.19
2022-11-20T13:42:55.786Z,78.17
2022-11-20T13:48:06.535Z,78.32
2022-11-20T13:53:38.913Z,78.37
2022-11-20T13:59:15.128Z,78.36
2022-11-20T14:04:25.635Z,78.36
2022-11-20T14:09:29.094Z,78.36
2022-11-20T14:14:34.184Z,78.60
2022-11-20T14:19:38.275Z,78.56
2022-11-20T14:24:40.086Z,78.70
2022-11-20T14:29:43.963Z,78.70
2022-11-20T14:34:48.577Z,78.73
2022-11-20T14:39:54.731Z,78.91
2022-11-20T14:45:00.319Z,78.79
2022-11-20T14:50:08.669Z,78.83
2022-11-20T14:55:15.474Z,78.69
2022-11-20T15:00:17.387Z,78.82
2022-11-20T15:05:21.859Z,78.82
2022-11-20T15:10:28.847Z,78.69
2022-11-20T15:15:33.323Z,78.71
2022-11-20T15:20:37.242Z,78.69
2022-11-20T15:25:40.918Z,78.59
2022-11-20T15:30:42.735Z,78.52
2022-11-20T15:35:45.624Z,78.70
2022-11-20T15:40:47.534Z,78.53
2022-11-20T15:45:56.458Z,78.59
2022-11-20T15:51:04.879Z,78.41
2022-11-20T15:56:07.493Z,78.29
2022-11-20T16:01:18.222Z,78.30
2022-11-20T16:06:20.274Z,78.31
2022-11-20T16:11:22.133Z,78.20
2022-11-20T16:16:29.758Z,78.17
2022-11-20T16:21:32.526Z,78.12
2022-11-20T16:26:35.027Z,78.14
2022-11-20T16:31:36.926Z,78.00
2022-11-20T16:36:41.717Z,77.98
2022-11-20T16:41:43.518Z,77.98
2022-11-20T16:46:45.522Z,77.87
2022-11-20T16:51:47.498Z,77.97
2022-11-20T16:56:51.087Z,77.76
2022-11-20T17:01:52.887Z,77.67
2022-11-20T17:06:54.867Z,77.68
2022-11-20T17:11:56.644Z,77.78
2022-11-20T17:16:58.786Z,77.79
2022-11-20T17:22:00.964Z,77.57
2022-11-20T17:27:02.826Z,77.58
2022-11-20T17:32:04.695Z,77.63
2022-11-20T17:37:06.917Z,77.58
2022-11-20T17:42:26.830Z,77.37
2022-11-20T17:47:28.811Z,77.47
2022-11-20T17:52:30.770Z,77.46
2022-11-20T17:57:51.224Z,77.46
2022-11-20T18:02:53.318Z,77.28
2022-11-20T18:07:55.287Z,77.48
2022-11-20T18:12:57.117Z,77.43
2022-11-20T18:17:59.018Z,77.01
2022-11-20T18:23:02.000Z,77.19
2022-11-20T18:28:03.760Z,77.18
2022-11-20T18:33:05.845Z,77.09
2022-11-20T18:38:07.812Z,77.40
2022-11-20T18:43:30.415Z,77.11
2022-11-20T18:48:32.268Z,77.08
2022-11-20T18:53:39.966Z,77.22
2022-11-20T18:58:44.964Z,77.11
2022-11-20T19:03:47.256Z,77.16
2022-11-20T19:08:49.007Z,77.18
2022-11-20T19:13:51.359Z,77.26
2022-11-20T19:18:53.169Z,77.03
2022-11-20T19:23:58.839Z,77.03
2022-11-20T19:29:00.673Z,77.02
2022-11-20T19:34:04.081Z,76.98
2022-11-20T19:39:07.762Z,76.94
2022-11-20T19:44:15.094Z,77.25
2022-11-20T19:49:16.963Z,77.17
2022-11-20T19:54:18.811Z,77.01
2022-11-20T19:59:20.987Z,77.37
2022-11-20T20:04:23.325Z,77.23
2022-11-20T20:09:27.055Z,77.26
2022-11-20T20:14:29.042Z,77.60
2022-11-20T20:19:30.888Z,77.36
2022-11-20T20:24:32.899Z,77.09
2022-11-20T20:29:34.693Z,77.23
2022-11-20T20:34:36.610Z,77.45
2022-11-20T20:39:38.400Z,77.32
2022-11-20T20:44:59.331Z,77.30
2022-11-20T20:50:03.200Z,77.43
2022-11-20T20:55:05.554Z,77.32
2022-11-20T21:00:09.166Z,77.39
2022-11-20T21:05:11.067Z,77.37
2022-11-20T21:10:12.878Z,77.81
2022-11-20T21:15:14.746Z,77.40
2022-11-20T21:20:35.476Z,77.41
2022-11-20T21:25:39.366Z,77.33
2022-11-20T21:30:41.191Z,77.45
2022-11-20T21:35:43.119Z,77.32
2022-11-20T21:40:45.013Z,77.51
2022-11-20T21:45:46.818Z,77.63
2022-11-20T21:50:49.943Z,77.59
2022-11-20T21:55:55.797Z,77.65
2022-11-20T22:00:58.145Z,77.68
2022-11-20T22:06:00.056Z,77.80
2022-11-20T22:11:04.604Z,77.65
2022-11-20T22:16:06.584Z,77.75
2022-11-20T22:21:08.396Z,77.69
2022-11-20T22:26:21.740Z,77.74
2022-11-20T22:31:26.074Z,77.65
2022-11-20T22:36:30.372Z,77.85
2022-11-20T22:41:32.937Z,77.81
2022-11-20T22:46:37.480Z,77.80
2022-11-20T22:51:41.445Z,77.98
2022-11-20T22:56:43.409Z,78.02
2022-11-20T23:01:45.261Z,77.68
2022-11-20T23:06:47.056Z,78.27
2022-11-20T23:11:48.847Z,78.19
2022-11-20T23:16:50.706Z,78.05
2022-11-20T23:21:52.519Z,77.90
2022-11-20T23:26:54.413Z,78.30
2022-11-20T23:31:56.233Z,78.32
2022-11-20T23:36:57.984Z,78.36
2022-11-20T23:41:59.937Z,78.57
2022-11-20T23:47:01.727Z,78.58
2022-11-20T23:52:03.648Z,78.81
2022-11-20T23:57:05.459Z,78.67
